ěÝzenÝ letovÚho provozu ╚eskÚ republiky
Letiste: LKPD Aktualizace: 25.01.2022 09:56:28  UTC
 METAR LKPD 25.01. 10:00 ...
METAR LKPD 251000Z 27008KT 7000 -DZ SCT007 OVC016 03/02 Q1030 NOSIG RMK WHT WHT=
 TAF LKPD 25.01. 05:00 ...
TAF LKPD 250500Z 2506/2606 28008KT 9999 BKN020      PROB30 TEMPO 2506/2509 2000 DZ BR BKN004      TEMPO 2506/2518 4000 DZ BR BKN006=